• Join FlightAware (Why Join?)
  • Login
  • US Flag 
12:48AM EDT


 

Airport Tracker/Info


-or-


 

Live Flight TrackerFlight Track Log ✈ SWA286 ✈ 08-Apr-2013 ✈ KBWI - KRSW

Flight Track Log - Related Links

Times and Time Zones

All times are in EDT time to prevent confusion due to time zone crossing. See the SWA286 flight status page for this flight to view local times or setup timezone preferences in your user account.

Time Position Orientation Groundspeed Altitude Reporting Facility
EDT Latitude Longitude Course Direction KTS MPH feet Rate Location/Type
05:07PM 39.1000 -76.6000 142° Southeast 208 239 4,700  Level Potomac TRACON
05:08PM 39.0500 -76.5333 134° Southeast 231 266 8,200 3,420 Climbing Potomac TRACON
05:09PM 39.0000 -76.4833 142° Southeast 255 293 11,600 1,800 Climbing Potomac TRACON
05:12PM 38.5154 -76.7131 171° South  Level FlightAware Approximate
05:12PM 38.8322 -76.5697 202° Southwest 300 345 14,000  Level Washington Center
05:13PM 38.7442 -76.6192 204° Southwest 327 376 16,900 2,460 Climbing Washington Center
05:14PM 38.6500 -76.6764 205° Southwest 353 406 19,000 1,080 Climbing Washington Center
05:15PM 38.5536 -76.7200 199° South 367 422 19,100 1,260 Climbing Washington Center
05:16PM 38.4475 -76.7103 176° South 373 429 21,600 2,400 Climbing Washington Center
05:17PM 38.3225 -76.6953 175° South 394 453 24,000 2,280 Climbing Washington Center
05:18PM 38.1997 -76.6750 173° South 420 483 26,200 2,040 Climbing Washington Center
05:19PM 38.0767 -76.6628 176° South 437 503 28,100 1,740 Climbing Washington Center
05:20PM 37.9497 -76.6450 174° South 454 522 29,700 1,500 Climbing Washington Center
05:21PM 37.8183 -76.6250 173° South 466 536 31,100 1,500 Climbing Washington Center
05:22PM 37.6831 -76.6100 175° South 487 560 32,800 1,500 Climbing Washington Center
05:23PM 37.5475 -76.5897 173° South 487 560 34,100 780 Climbing Washington Center
05:24PM 37.4100 -76.5697 173° South 497 572 34,400 1,020 Climbing Washington Center
05:25PM 37.2744 -76.5575 176° South 497 572 36,200 1,740 Climbing Washington Center
05:26PM 37.1492 -76.5978 194° South 477 549 37,900 1,500 Climbing Washington Center
05:27PM 37.0339 -76.6533 201° Southwest 461 531 39,300 1,080 Climbing Washington Center
05:28PM 36.9186 -76.7089 201° Southwest 456 525 40,100 360 Climbing Washington Center
05:29PM 36.8056 -76.7644 201° Southwest 446 513 40,100  Level Washington Center
05:30PM 36.6922 -76.8172 200° South 441 507 40,100  Level Washington Center
05:31PM 36.5792 -76.8697 200° South 441 507 40,100  Level Washington Center
05:32PM 36.4658 -76.9194 199° South 434 499 40,100  Level Washington Center
05:33PM 36.3547 -76.9744 202° Southwest 434 499 40,100  Level Washington Center
05:34PM 36.2436 -77.0239 200° South 434 499 40,100  Level Washington Center
05:35PM 36.1303 -77.0758 200° South 434 499 40,100  Level Washington Center
05:36PM 36.0147 -77.1250 199° South 434 499 40,100  Level Washington Center
05:37PM 35.9225 -77.1744 203° Southwest 429 494 40,100  Level Washington Center
05:38PM 35.8092 -77.2236 199° South 429 494 40,100  Level Washington Center
05:39PM 35.6936 -77.2750 200° South 434 499 40,100  Level Washington Center
05:40PM 35.5781 -77.3261 200° South 434 499 40,100  Level Washington Center
05:41PM 35.4625 -77.3797 201° Southwest 434 499 40,100  Level Washington Center
05:42PM 35.3511 -77.4281 199° South 434 499 40,100  Level Washington Center
05:43PM 35.2356 -77.4789 200° South 434 499 40,100  Level Washington Center
05:44PM 35.1181 -77.5319 200° South 439 505 40,100  Level Washington Center
05:45PM 35.0044 -77.5850 201° Southwest 439 505 40,100  Level Washington Center
05:46PM 34.8908 -77.6356 200° South 434 499 40,100  Level Washington Center
05:47PM 34.7794 -77.6908 202° Southwest 434 499 40,100  Level Washington Center
05:48PM 34.6658 -77.7383 199° South 434 499 40,100  Level Washington Center
05:49PM 34.5503 -77.7883 200° South 434 499 40,100  Level Washington Center
05:50PM 34.4367 -77.8406 201° Southwest 434 499 40,100  Level Washington Center
05:51PM 34.2078 -77.9186 196° South 417 480 40,100  Level Jacksonville Center
05:52PM 34.0942 -77.9478 192° South 449 517 40,100  Level Jacksonville Center
05:53PM 33.9744 -77.9794 192° South 449 517 40,100  Level Jacksonville Center
05:54PM 33.8547 -78.0161 194° South 449 517 40,100  Level Jacksonville Center
05:55PM 33.7331 -78.0531 194° South 449 517 40,100  Level Jacksonville Center
05:56PM 33.6133 -78.0869 193° South 449 517 40,100  Level Jacksonville Center
05:57PM 33.4936 -78.1208 193° South 449 517 40,100  Level Jacksonville Center
05:58PM 33.3761 -78.1544 193° South 449 517 40,100  Level Jacksonville Center
05:59PM 33.2542 -78.1883 193° South 449 517 40,100  Level Jacksonville Center
06:00PM 33.1344 -78.2244 194° South 449 517 40,100  Level Jacksonville Center
06:01PM 33.0147 -78.2553 192° South 449 517 40,100  Level Jacksonville Center
06:02PM 32.8969 -78.2911 194° South 449 517 40,100  Level Jacksonville Center
06:03PM 32.7772 -78.3269 194° South 449 517 40,100  Level Jacksonville Center
06:04PM 32.6572 -78.3553 191° South 449 517 40,100  Level Jacksonville Center
06:05PM 32.5353 -78.3883 193° South 449 517 40,100  Level Jacksonville Center
06:06PM 32.4175 -78.4236 194° South 449 517 40,100  Level Jacksonville Center
06:07PM 32.2875 -78.4669 196° South 449 517 40,100  Level Jacksonville Center
06:08PM 32.1697 -78.4997 193° South 449 517 40,100  Level Jacksonville Center
06:09PM 32.0539 -78.5297 192° South 444 511 40,100  Level Jacksonville Center
06:10PM 31.9361 -78.5669 195° South 439 505 40,100  Level Jacksonville Center
06:11PM 31.8222 -78.5969 193° South 439 505 40,100  Level Jacksonville Center
06:12PM 31.7044 -78.6317 194° South 432 497 40,100  Level Jacksonville Center
06:13PM 31.5867 -78.6664 194° South 432 497 40,100  Level Jacksonville Center
06:14PM 31.4731 -78.7006 194° South 432 497 40,100  Level Jacksonville Center
06:15PM 31.3575 -78.7447 198° South 432 497 40,100  Level Jacksonville Center
06:16PM 31.2400 -78.7914 199° South 437 503 40,100  Level Jacksonville Center
06:17PM 31.1267 -78.8303 196° South 431 496 40,100  Level Jacksonville Center
06:18PM 31.0111 -78.8764 199° South 436 502 40,100  Level Jacksonville Center
06:19PM 30.8956 -78.9175 197° South 439 505 40,100  Level Jacksonville Center
06:20PM 30.7842 -78.9608 198° South 439 505 40,100  Level Jacksonville Center
06:21PM 30.6664 -78.9997 196° South 433 498 40,100  Level Jacksonville Center
06:22PM 30.5550 -79.0428 198° South 436 502 40,100  Level Jacksonville Center
06:23PM 30.5156 -79.0558 196° South 444 511 40,100  Level Miami Center
06:24PM 30.4025 -79.0967 197° South 444 511 40,100  Level Miami Center
06:25PM 30.2892 -79.1375 197° South 438 504 40,100  Level Miami Center
06:26PM 30.1761 -79.1783 197° South 432 497 40,100  Level Miami Center
06:27PM 30.0647 -79.2214 198° South 432 497 40,100  Level Miami Center
06:28PM 29.9472 -79.2739 201° Southwest 426 490 40,100  Level Miami Center
06:29PM 29.8361 -79.3097 196° South 421 484 40,100  Level Miami Center
06:30PM 29.7289 -79.3575 201° Southwest 437 503 40,100  Level Miami Center
06:31PM 29.6136 -79.3931 195° South 432 497 40,100  Level Miami Center
06:32PM 29.5022 -79.4333 197° South 422 486 40,100  Level Miami Center
06:33PM 29.3911 -79.4711 197° South 422 486 40,100  Level Miami Center
06:34PM 29.2778 -79.5067 195° South 427 491 40,100  Level Miami Center
06:35PM 29.1664 -79.5492 198° South 427 491 40,100  Level Miami Center
06:36PM 29.0531 -79.5914 198° South 427 491 40,100 -600 Level Miami Center
06:37PM 28.9761 -79.6797 225° Southwest 403 464 39,000 -1,800 Descending Miami Center
06:38PM 28.9033 -79.7703 227° Southwest 394 453 36,500 -2,400 Descending Miami Center
06:39PM 28.8325 -79.8656 230° Southwest 394 453 34,200 -2,340 Descending Miami Center
06:40PM 28.7617 -79.9583 229° Southwest 394 453 31,900 -2,160 Descending Miami Center
06:41PM 28.6953 -80.0464 229° Southwest 389 448 29,900 -1,980 Descending Miami Center
06:42PM 28.6350 -80.1250 229° Southwest 378 435 28,000 -2,100 Descending Miami Center
06:43PM 28.5619 -80.2175 228° Southwest 370 426 25,800 -1,800 Descending Miami Center
06:44PM 28.4994 -80.3006 229° Southwest 360 414 24,400 -1,200 Descending Miami Center
06:45PM 28.4553 -80.4008 243° Southwest 353 406 23,500 -960 Descending Miami Center
06:46PM 28.4194 -80.4942 246° West 359 413 22,500 -1,020 Descending Miami Center
06:47PM 28.3772 -80.5989 245° Southwest 359 413 21,500 -1,020 Descending Miami Center
06:48PM 28.3369 -80.6989 245° Southwest 359 413 20,500 -780 Descending Miami Center
06:49PM 28.2967 -80.8011 246° West 359 413 20,000 -300 Descending Miami Center
06:50PM 28.2561 -80.9036 246° West 359 413 20,000  Level Miami Center
06:51PM 28.2136 -81.0056 245° Southwest 359 413 20,000  Level Miami Center
06:52PM 28.1731 -81.1056 245° Southwest 354 407 20,000  Level Miami Center
06:53PM 28.1306 -81.2075 245° Southwest 354 407 20,100  Climbing Miami Center
06:54PM 28.0853 -81.3208 246° West 354 407 20,000 -60 Descending Miami Center
06:55PM 28.0142 -81.3933 222° Southwest 339 390 20,000  Level Miami Center
06:56PM 27.9200 -81.4014 184° South 357 411 20,000  Level Miami Center
06:57PM 27.8194 -81.4114 185° South 368 423 20,000  Level Miami Center
06:58PM 27.7067 -81.4186 183° South 373 429 20,000  Level Miami Center
06:59PM 27.6039 -81.4286 185° South 368 423 20,000 -420 Level Miami Center
07:00PM 27.5036 -81.4364 184° South 368 423 19,200 -1,200 Descending Miami Center
07:01PM 27.4133 -81.4492 187° South 368 423 17,600 -1,800 Descending Miami Center
07:02PM 27.3172 -81.4569 184° South 363 418 15,600 -1,920 Descending Miami Center
07:03PM 27.2208 -81.4647 184° South 358 412 13,800 -1,800 Descending Miami Center
07:04PM 27.1308 -81.4753 186° South 345 397 12,000 -1,800 Descending Miami Center
07:05PM 27.0344 -81.4806 183° South 332 382 10,300 -1,020 Descending Miami Center
07:06PM 26.9622 -81.4569 164° South 299 344 10,000 -180 Descending Miami Center
07:07PM 26.8800 -81.4164 156° South 294 338 10,000 -360 Level Miami Center
07:08PM 26.8017 -81.3831 159° South 300 345 9,300 -1,020 Descending Miami Center
07:09PM 26.7200 -81.3961 188° South 291 335 8,000 -660 Descending Miami Center
07:10PM 26.6567 -81.4192 198° South 267 307 8,000  Level Miami Center
07:12PM 26.4771 -81.4132 197° South  Level FlightAware Approximate
07:19PM 26.5333 -81.7500 318° Northwest  Level FlightAware Approximate
07:20PM 26.5362 -81.7552 318° Northwest  Level Estimated
07:21PM 26.5333 -81.7500 318° Northwest  Level FlightAware Approximate
07:22PM 26.5362 -81.7552 318° Northwest  Level Estimated
07:23PM 26.5333 -81.7500 318° Northwest  Level FlightAware Approximate
07:24PM 26.5362 -81.7552 318° Northwest  Level Estimated
07:25PM 26.5333 -81.7500 318° Northwest  Level FlightAware Approximate
07:26PM 26.5362 -81.7552 318° Northwest  Level Estimated
07:27PM 26.5333 -81.7500 318° Northwest  Level FlightAware Approximate
07:28PM 26.5362 -81.7552 318° Northwest  Level Estimated
07:29PM 26.5333 -81.7500 318° Northwest  Level FlightAware Approximate
07:30PM 26.5362 -81.7552 318° Northwest  Level Estimated